Time;durP1;ratioP1;P1;durP2;ratioP2;P2;SDS_P1;SDS_P2;PMS_P1;PMS_P2;Temp;Humidity;BMP_temperature;BMP_pressure;BME280_temperature;BME280_humidity;BME280_pressure;Samples;Min_cycle;Max_cycle;Signal;HPM_P1;HPM_P2
2023/01/19 00:01:47;;;;;;;9.20;7.95;;;5.90;61.10;;;;;;5071842;28;20204;-70
2023/01/19 00:04:14;;;;;;;9.15;7.20;;;5.90;61.10;;;;;;5071263;28;20295;-70
2023/01/19 00:06:43;;;;;;;10.43;7.68;;;5.90;61.10;;;;;;5071612;28;20201;-70
2023/01/19 00:09:10;;;;;;;10.55;7.60;;;5.90;61.10;;;;;;5071012;28;20205;-70
2023/01/19 00:11:37;;;;;;;10.10;7.78;;;5.90;61.00;;;;;;5071039;28;20221;-70
2023/01/19 00:14:04;;;;;;;10.38;7.47;;;5.90;60.90;;;;;;5070939;28;20304;-70
2023/01/19 00:16:30;;;;;;;10.40;7.15;;;5.90;60.90;;;;;;5071435;28;20655;-71
2023/01/19 00:18:57;;;;;;;9.88;7.28;;;5.90;60.70;;;;;;5071027;28;20207;-71
2023/01/19 00:21:24;;;;;;;10.27;7.30;;;5.90;60.80;;;;;;5071188;28;20276;-70
2023/01/19 00:23:52;;;;;;;9.45;6.82;;;5.90;60.80;;;;;;5071255;28;20321;-70
2023/01/19 00:26:20;;;;;;;10.27;7.43;;;5.90;60.80;;;;;;5073618;28;20237;-70
2023/01/19 00:28:48;;;;;;;9.63;7.40;;;5.80;60.90;;;;;;5075245;28;20204;-69
2023/01/19 00:31:15;;;;;;;12.23;7.13;;;5.80;61.60;;;;;;5082992;28;20223;-70
2023/01/19 00:33:42;;;;;;;8.13;6.38;;;5.90;61.00;;;;;;5095501;28;20543;-70
2023/01/19 00:36:10;;;;;;;10.20;6.57;;;5.80;61.00;;;;;;5094703;28;20231;-70
2023/01/19 00:38:37;;;;;;;10.93;7.18;;;5.90;61.30;;;;;;5094915;28;20570;-70
2023/01/19 00:41:06;;;;;;;9.65;7.05;;;5.90;61.00;;;;;;5092765;28;20201;-71
2023/01/19 00:43:32;;;;;;;10.30;7.20;;;5.80;60.80;;;;;;5074875;28;20295;-70
2023/01/19 00:45:59;;;;;;;8.80;6.57;;;5.80;60.80;;;;;;5074526;28;20295;-70
2023/01/19 00:48:25;;;;;;;9.18;5.85;;;5.70;61.00;;;;;;5074656;28;20300;-70
2023/01/19 00:50:52;;;;;;;8.10;6.07;;;5.70;61.10;;;;;;5074480;28;20319;-71
2023/01/19 00:53:19;;;;;;;12.20;7.13;;;5.70;61.30;;;;;;5073581;28;20280;-71
2023/01/19 00:55:46;;;;;;;8.30;6.68;;;5.60;61.20;;;;;;5074465;28;20206;-70
2023/01/19 00:58:14;;;;;;;8.40;6.10;;;5.60;61.40;;;;;;5074276;28;20252;-70
2023/01/19 01:00:41;;;;;;;8.02;6.05;;;5.70;61.40;;;;;;5074407;28;20205;-70
2023/01/19 01:03:09;;;;;;;8.00;5.90;;;5.60;61.20;;;;;;5073754;28;20240;-71
2023/01/19 01:05:36;;;;;;;10.45;6.50;;;5.60;61.60;;;;;;5074217;28;20209;-70
2023/01/19 01:08:03;;;;;;;9.75;6.85;;;5.50;61.30;;;;;;5073200;28;20304;-71
2023/01/19 01:10:31;;;;;;;9.75;6.82;;;5.60;61.70;;;;;;5074176;28;20198;-70
2023/01/19 01:12:58;;;;;;;8.23;6.53;;;5.50;62.00;;;;;;5075437;28;20308;-70
2023/01/19 01:15:28;;;;;;;8.57;6.43;;;5.60;61.90;;;;;;5074485;28;20749;-71
2023/01/19 01:17:55;;;;;;;8.38;6.53;;;5.60;61.70;;;;;;5074075;28;20189;-71
2023/01/19 01:20:25;;;;;;;10.57;6.15;;;5.70;61.80;;;;;;5073185;28;20311;-71
2023/01/19 01:22:54;;;;;;;10.35;6.68;;;5.70;61.60;;;;;;5092041;28;20318;-72
2023/01/19 01:25:22;;;;;;;6.90;5.75;;;5.80;61.60;;;;;;5093979;28;20594;-70
2023/01/19 01:27:50;;;;;;;8.43;5.75;;;5.90;61.70;;;;;;5094432;28;20211;-70
2023/01/19 01:30:17;;;;;;;10.18;5.93;;;5.90;61.60;;;;;;5093795;28;20330;-70
2023/01/19 01:32:46;;;;;;;7.47;5.80;;;5.90;61.10;;;;;;5094127;28;20220;-70
2023/01/19 01:35:13;;;;;;;8.65;6.25;;;6.00;60.90;;;;;;5093668;28;20273;-70
2023/01/19 01:37:41;;;;;;;7.30;6.00;;;6.10;60.80;;;;;;5092618;28;20258;-71
2023/01/19 01:40:12;;;;;;;8.00;6.05;;;6.10;60.60;;;;;;5093211;28;20236;-70
2023/01/19 01:42:41;;;;;;;8.70;6.30;;;6.00;60.70;;;;;;5077835;28;20205;-70
2023/01/19 01:45:26;;;;;;;8.18;6.25;;;6.00;60.80;;;;;;5073425;28;20209;-70
2023/01/19 01:47:57;;;;;;;7.10;6.07;;;6.10;60.80;;;;;;5073921;28;20195;-71
2023/01/19 01:50:28;;;;;;;10.43;6.70;;;6.10;60.80;;;;;;5073152;28;20185;-71
2023/01/19 01:52:59;;;;;;;8.10;6.30;;;6.10;60.60;;;;;;5090972;28;20220;-70
2023/01/19 01:55:28;;;;;;;8.98;6.28;;;6.10;61.40;;;;;;5093623;28;20193;-70
2023/01/19 01:58:00;;;;;;;9.25;6.15;;;6.00;60.80;;;;;;5093537;28;20247;-70
2023/01/19 02:02:49;;;;;;;9.65;6.78;;;6.00;61.00;;;;;;5094023;28;20538;-72
2023/01/19 02:03:15;;;;;;;10.52;6.45;;;6.00;60.90;;;;;;5072356;28;20254;-72
2023/01/19 02:05:43;;;;;;;7.78;6.18;;;6.00;60.80;;;;;;5073424;28;20530;-70
2023/01/19 02:13:45;;;;;;;9.88;6.45;;;6.10;60.80;;;;;;5093504;28;20188;-70
2023/01/19 02:16:14;;;;;;;7.72;5.68;;;6.10;60.90;;;;;;5092559;28;20220;-70
2023/01/19 02:18:44;;;;;;;7.80;6.15;;;6.10;61.80;;;;;;5056113;28;20718;-71
2023/01/19 02:21:18;;;;;;;7.43;6.25;;;6.10;60.80;;;;;;5091326;28;20251;-72
2023/01/19 02:23:49;;;;;;;8.88;6.47;;;6.00;61.10;;;;;;5085601;28;20600;-71
2023/01/19 02:26:20;;;;;;;7.10;6.25;;;6.00;61.50;;;;;;5072293;28;20296;-72
2023/01/19 02:28:51;;;;;;;7.68;5.70;;;5.90;61.30;;;;;;5073008;28;20236;-71
2023/01/19 02:31:19;;;;;;;10.50;7.00;;;5.90;61.60;;;;;;5081288;28;20194;-71
2023/01/19 02:33:46;;;;;;;12.10;9.25;;;5.80;62.00;;;;;;5090462;28;20192;-71
2023/01/19 02:36:16;;;;;;;10.60;7.05;;;5.80;62.20;;;;;;5071660;28;20213;-71
2023/01/19 02:38:45;;;;;;;8.10;6.40;;;5.90;62.20;;;;;;5072487;28;20197;-71
2023/01/19 02:41:19;;;;;;;8.10;6.80;;;5.90;62.00;;;;;;5073321;28;20531;-71
2023/01/19 02:43:48;;;;;;;7.30;6.00;;;5.90;61.90;;;;;;5072694;28;20208;-71
2023/01/19 02:46:15;;;;;;;8.82;6.45;;;5.90;62.10;;;;;;5071704;28;20205;-71
2023/01/19 02:48:44;;;;;;;7.60;6.05;;;6.00;62.10;;;;;;5072251;28;20205;-71
2023/01/19 02:51:17;;;;;;;8.05;6.13;;;6.00;61.70;;;;;;5073073;28;20215;-70
2023/01/19 02:54:05;;;;;;;8.65;6.20;;;6.00;61.70;;;;;;5072692;28;20287;-70
2023/01/19 02:56:45;;;;;;;10.05;7.07;;;6.00;61.70;;;;;;5072407;28;20284;-71
2023/01/19 02:59:28;;;;;;;10.02;6.65;;;5.90;61.90;;;;;;5085182;28;20196;-70
2023/01/19 03:02:26;;;;;;;8.50;6.35;;;6.00;62.00;;;;;;5091575;28;20200;-70
2023/01/19 03:05:08;;;;;;;8.32;6.60;;;6.00;61.70;;;;;;5092216;28;20284;-71
2023/01/19 03:07:44;;;;;;;9.23;6.75;;;6.10;61.80;;;;;;5072311;28;20189;-70
2023/01/19 03:10:19;;;;;;;7.88;6.50;;;6.10;61.30;;;;;;5081736;28;20279;-70
2023/01/19 03:12:54;;;;;;;8.38;6.55;;;6.00;61.10;;;;;;5087672;28;20218;-70
2023/01/19 03:15:26;;;;;;;7.90;6.13;;;6.00;61.10;;;;;;5091897;28;20184;-70
2023/01/19 03:17:53;;;;;;;8.25;5.93;;;6.00;61.70;;;;;;5091984;28;20211;-70
2023/01/19 03:20:27;;;;;;;9.18;7.03;;;6.00;61.30;;;;;;5091793;28;20335;-70
2023/01/19 03:23:00;;;;;;;7.22;6.07;;;6.00;61.40;;;;;;5073122;28;20201;-70
2023/01/19 03:25:30;;;;;;;9.25;6.03;;;6.10;61.20;;;;;;5071588;28;20197;-70
2023/01/19 03:27:58;;;;;;;9.50;7.65;;;6.10;60.70;;;;;;5071954;28;20209;-70
2023/01/19 03:30:28;;;;;;;10.32;6.93;;;6.00;60.90;;;;;;5071560;28;20201;-71
2023/01/19 03:32:59;;;;;;;9.80;6.35;;;5.90;61.30;;;;;;5091261;28;20211;-70
2023/01/19 03:35:30;;;;;;;11.05;7.22;;;5.90;61.40;;;;;;5092074;28;20946;-70
2023/01/19 03:38:00;;;;;;;7.85;6.53;;;5.90;61.10;;;;;;5092462;28;20184;-70
2023/01/19 03:40:29;;;;;;;9.13;6.85;;;5.90;60.90;;;;;;5091583;28;20299;-70
2023/01/19 03:42:59;;;;;;;7.70;6.85;;;5.90;61.10;;;;;;5088341;28;20196;-71
2023/01/19 03:45:26;;;;;;;9.95;6.95;;;5.90;61.20;;;;;;5091281;28;20207;-71
2023/01/19 03:47:54;;;;;;;8.30;6.93;;;5.90;61.90;;;;;;5110915;28;20246;-70
2023/01/19 03:50:26;;;;;;;7.90;6.40;;;5.80;60.90;;;;;;5103757;28;20291;-70
2023/01/19 03:53:06;;;;;;;8.73;6.70;;;5.70;61.40;;;;;;5079560;28;20244;-70
2023/01/19 03:55:33;;;;;;;10.52;6.80;;;5.60;62.00;;;;;;5092211;28;20241;-70
2023/01/19 03:58:01;;;;;;;9.00;6.53;;;5.60;62.30;;;;;;5091846;28;20226;-71
2023/01/19 04:00:28;;;;;;;8.45;7.00;;;5.40;62.70;;;;;;5092676;28;20238;-70
2023/01/19 04:02:55;;;;;;;9.23;7.22;;;5.40;63.20;;;;;;5090678;28;20573;-70
2023/01/19 04:05:23;;;;;;;9.52;7.15;;;5.40;63.50;;;;;;5074940;28;20808;-70
2023/01/19 04:07:50;;;;;;;9.43;7.15;;;5.20;63.50;;;;;;5075746;28;20632;-71
2023/01/19 04:10:17;;;;;;;11.80;7.75;;;5.10;64.00;;;;;;5074891;28;20240;-69
2023/01/19 04:12:45;;;;;;;11.57;8.30;;;5.20;64.10;;;;;;5075894;28;20299;-69
2023/01/19 04:15:14;;;;;;;12.80;9.50;;;5.20;63.90;;;;;;5074815;28;20284;-70
2023/01/19 04:17:41;;;;;;;12.60;10.18;;;5.20;64.00;;;;;;5074866;28;20219;-70
2023/01/19 04:20:09;;;;;;;10.80;8.43;;;5.30;64.10;;;;;;5074860;28;20221;-71
2023/01/19 04:22:37;;;;;;;11.20;9.13;;;5.30;64.00;;;;;;5076642;28;20204;-71
2023/01/19 04:25:06;;;;;;;11.68;9.10;;;5.20;64.10;;;;;;5095853;28;20212;-70
2023/01/19 04:27:33;;;;;;;11.50;9.20;;;5.20;64.50;;;;;;5094844;28;20539;-70
2023/01/19 04:30:00;;;;;;;10.98;8.38;;;5.20;64.20;;;;;;5095179;28;20299;-70
2023/01/19 04:32:28;;;;;;;11.50;9.07;;;5.20;64.60;;;;;;5109007;28;20215;-71
2023/01/19 04:34:58;;;;;;;12.27;8.20;;;5.30;64.50;;;;;;5075143;28;20201;-71
2023/01/19 04:37:25;;;;;;;10.25;8.32;;;5.30;64.10;;;;;;5074795;28;20206;-70
2023/01/19 04:39:52;;;;;;;11.35;8.68;;;5.40;64.10;;;;;;5074948;28;20201;-70
2023/01/19 04:42:19;;;;;;;11.00;7.75;;;5.40;64.20;;;;;;5074364;28;20705;-70
2023/01/19 04:44:46;;;;;;;9.45;7.80;;;5.50;63.80;;;;;;5093295;28;20200;-70
2023/01/19 04:47:13;;;;;;;10.35;7.97;;;5.50;63.80;;;;;;5094657;28;20303;-70
2023/01/19 04:49:41;;;;;;;9.70;7.38;;;5.50;63.80;;;;;;5095230;28;20258;-70
2023/01/19 04:52:08;;;;;;;10.57;7.90;;;5.40;63.80;;;;;;5084363;28;20229;-69
2023/01/19 04:54:35;;;;;;;12.02;7.60;;;5.40;63.90;;;;;;5091097;28;20627;-69
2023/01/19 04:57:02;;;;;;;9.82;7.90;;;5.40;64.00;;;;;;5094716;28;20204;-69
2023/01/19 04:59:28;;;;;;;10.02;7.88;;;5.20;64.10;;;;;;5093888;28;20204;-70
2023/01/19 05:01:55;;;;;;;11.00;7.93;;;5.20;64.70;;;;;;5094567;28;20299;-69
2023/01/19 05:04:24;;;;;;;10.35;7.70;;;5.10;64.90;;;;;;5080053;28;20764;-70
2023/01/19 05:06:53;;;;;;;14.93;10.10;;;5.10;65.00;;;;;;5074456;28;20216;-69
2023/01/19 05:09:20;;;;;;;11.35;8.63;;;5.10;65.10;;;;;;5074175;28;20241;-69
2023/01/19 05:11:46;;;;;;;10.10;8.30;;;5.10;65.50;;;;;;5074208;28;20209;-70
2023/01/19 05:14:13;;;;;;;10.73;8.18;;;5.10;65.30;;;;;;5085274;28;20224;-70
2023/01/19 05:16:40;;;;;;;11.40;7.82;;;5.10;65.20;;;;;;5094603;28;20204;-68
2023/01/19 05:19:07;;;;;;;10.00;7.88;;;5.10;65.10;;;;;;5094393;28;20228;-70
2023/01/19 05:21:34;;;;;;;11.43;9.30;;;5.20;65.30;;;;;;5093569;28;20205;-69
2023/01/19 05:24:03;;;;;;;11.88;9.02;;;5.10;65.30;;;;;;5080796;28;20229;-69
2023/01/19 05:26:29;;;;;;;12.27;9.00;;;5.00;65.60;;;;;;5073407;28;20201;-69
2023/01/19 05:28:56;;;;;;;10.32;8.77;;;4.90;65.80;;;;;;5073584;28;20720;-69
2023/01/19 05:31:23;;;;;;;11.38;8.70;;;5.00;65.80;;;;;;5086775;28;20199;-69
2023/01/19 05:33:50;;;;;;;10.20;8.68;;;5.00;65.60;;;;;;5102119;28;20668;-69
2023/01/19 05:36:17;;;;;;;11.27;8.45;;;5.10;65.70;;;;;;5093713;28;20261;-69
2023/01/19 05:38:44;;;;;;;9.60;8.10;;;5.20;65.30;;;;;;5094179;28;20204;-69
2023/01/19 05:41:13;;;;;;;9.38;7.43;;;5.10;65.00;;;;;;5094117;28;20660;-69
2023/01/19 05:43:39;;;;;;;10.93;8.32;;;5.00;65.30;;;;;;5092697;28;20197;-69
2023/01/19 05:46:06;;;;;;;10.60;8.32;;;5.00;65.50;;;;;;5094256;28;20204;-69
2023/01/19 05:48:33;;;;;;;9.85;7.82;;;4.90;65.60;;;;;;5093868;28;20217;-69
2023/01/19 05:51:01;;;;;;;11.38;7.68;;;4.80;65.80;;;;;;5093828;28;20604;-69
2023/01/19 05:53:28;;;;;;;10.63;8.20;;;4.80;66.00;;;;;;5083049;28;20244;-69
2023/01/19 05:56:00;;;;;;;9.18;8.00;;;5.00;65.90;;;;;;5092531;28;20766;-69
2023/01/19 05:58:28;;;;;;;9.57;7.90;;;5.10;65.20;;;;;;5092447;28;20607;-69
2023/01/19 06:00:55;;;;;;;9.07;7.47;;;5.20;64.90;;;;;;5093611;28;20209;-70
2023/01/19 06:03:22;;;;;;;9.40;7.53;;;5.30;65.20;;;;;;5091043;28;20653;-69
2023/01/19 06:05:49;;;;;;;10.43;7.50;;;5.30;64.00;;;;;;5075803;28;20205;-69
2023/01/19 06:08:16;;;;;;;10.00;7.65;;;5.30;64.00;;;;;;5072696;28;20232;-68
2023/01/19 06:10:43;;;;;;;9.98;7.32;;;5.30;64.00;;;;;;5073202;28;20241;-70
2023/01/19 06:13:10;;;;;;;10.02;7.20;;;5.40;63.90;;;;;;5079087;28;20224;-71
2023/01/19 06:15:38;;;;;;;10.15;7.88;;;5.30;63.50;;;;;;5092955;28;20584;-70
2023/01/19 06:18:05;;;;;;;8.65;7.28;;;5.30;63.50;;;;;;5093343;28;20240;-69
2023/01/19 06:20:32;;;;;;;9.85;7.43;;;5.10;63.60;;;;;;5092607;28;20225;-71
2023/01/19 06:22:59;;;;;;;9.93;6.85;;;5.20;64.20;;;;;;5086941;28;20274;-71
2023/01/19 06:25:26;;;;;;;9.70;6.75;;;5.20;63.90;;;;;;5072357;28;20198;-70
2023/01/19 06:27:53;;;;;;;11.45;7.55;;;5.30;64.10;;;;;;5072703;28;20232;-73
2023/01/19 06:30:20;;;;;;;10.52;7.40;;;5.30;64.80;;;;;;5085421;28;20661;-72
2023/01/19 06:32:48;;;;;;;8.25;7.07;;;5.50;63.80;;;;;;5095609;28;20220;-72
2023/01/19 06:35:16;;;;;;;10.82;7.43;;;5.40;63.50;;;;;;5083340;28;20668;-72
2023/01/19 06:37:43;;;;;;;9.00;7.25;;;5.50;63.50;;;;;;5092623;28;20216;-72
2023/01/19 06:40:12;;;;;;;9.63;7.43;;;5.60;63.50;;;;;;5092612;28;20203;-72
2023/01/19 06:42:38;;;;;;;8.90;7.20;;;5.50;63.20;;;;;;5081262;28;20292;-71
2023/01/19 06:45:08;;;;;;;9.30;7.63;;;5.60;63.30;;;;;;5082763;28;20205;-71
2023/01/19 06:47:34;;;;;;;11.60;7.30;;;5.70;63.00;;;;;;5081432;28;20228;-71
2023/01/19 06:50:03;;;;;;;10.52;6.60;;;5.80;62.70;;;;;;5072630;28;20205;-72
2023/01/19 06:52:30;;;;;;;9.07;7.57;;;5.70;62.90;;;;;;5072936;28;20670;-71
2023/01/19 06:54:57;;;;;;;9.50;7.50;;;5.70;63.00;;;;;;5071756;28;20205;-71
2023/01/19 06:57:24;;;;;;;8.93;6.80;;;5.70;62.70;;;;;;5071489;28;20726;-71
2023/01/19 06:59:51;;;;;;;9.40;7.35;;;5.60;62.90;;;;;;5072356;28;20295;-71
2023/01/19 07:02:21;;;;;;;9.75;7.75;;;5.70;63.20;;;;;;5071367;28;20292;-71
2023/01/19 07:04:48;;;;;;;9.05;7.22;;;5.70;63.00;;;;;;5072500;28;20208;-72
2023/01/19 07:07:17;;;;;;;8.63;6.38;;;5.70;62.80;;;;;;5072154;28;20204;-71
2023/01/19 07:09:44;;;;;;;12.80;7.28;;;5.80;62.90;;;;;;5071759;28;20201;-72
2023/01/19 07:12:11;;;;;;;8.65;7.15;;;5.90;63.10;;;;;;5072098;28;20684;-71
2023/01/19 07:14:38;;;;;;;10.20;6.32;;;5.90;62.80;;;;;;5071534;28;20221;-71
2023/01/19 07:17:05;;;;;;;8.18;6.43;;;6.00;62.60;;;;;;5071979;28;20211;-72
2023/01/19 07:19:33;;;;;;;9.00;6.28;;;6.00;62.30;;;;;;5071348;28;20221;-71
2023/01/19 07:22:01;;;;;;;7.28;6.38;;;5.90;62.30;;;;;;5071868;28;20523;-71
2023/01/19 07:24:30;;;;;;;9.95;6.65;;;6.00;62.50;;;;;;5071137;28;20240;-71
2023/01/19 07:26:57;;;;;;;10.32;6.78;;;5.90;62.30;;;;;;5072187;28;20205;-72
2023/01/19 07:29:24;;;;;;;7.28;6.18;;;5.80;62.50;;;;;;5071726;28;20266;-72
2023/01/19 07:31:53;;;;;;;6.57;5.75;;;5.90;62.50;;;;;;5093258;28;20260;-71
2023/01/19 07:34:20;;;;;;;8.10;6.22;;;5.90;62.60;;;;;;5111938;28;20590;-71
2023/01/19 07:36:47;;;;;;;9.07;6.63;;;5.90;62.30;;;;;;5096545;28;20207;-71
2023/01/19 07:39:14;;;;;;;7.15;6.25;;;6.00;62.30;;;;;;5095782;28;20675;-71
2023/01/19 07:41:42;;;;;;;10.40;6.68;;;6.00;62.10;;;;;;5095821;28;20562;-72
2023/01/19 07:44:10;;;;;;;7.50;6.03;;;6.00;62.10;;;;;;5096052;28;20204;-71
2023/01/19 07:46:36;;;;;;;7.72;5.80;;;6.00;61.90;;;;;;5095436;28;20212;-71
2023/01/19 07:49:03;;;;;;;6.90;5.90;;;6.00;61.80;;;;;;5096298;28;20235;-71
2023/01/19 07:51:30;;;;;;;8.32;6.30;;;6.00;62.10;;;;;;5095481;28;20281;-71
2023/01/19 07:53:57;;;;;;;11.95;6.60;;;5.90;61.80;;;;;;5095528;28;20220;-71
2023/01/19 07:56:26;;;;;;;8.27;6.78;;;5.90;63.00;;;;;;5095228;28;20215;-71
2023/01/19 07:58:57;;;;;;;7.05;5.65;;;5.90;62.30;;;;;;5085443;28;20267;-72
2023/01/19 08:01:24;;;;;;;7.28;6.10;;;5.80;62.20;;;;;;5075034;28;20190;-71
2023/01/19 08:03:51;;;;;;;8.32;6.93;;;5.80;62.00;;;;;;5075478;28;20228;-72
2023/01/19 08:06:21;;;;;;;9.13;7.30;;;5.80;62.40;;;;;;5074833;28;20545;-71
2023/01/19 08:08:48;;;;;;;8.50;6.88;;;5.70;62.60;;;;;;5075311;28;20194;-72
2023/01/19 08:11:15;;;;;;;7.93;6.43;;;5.70;62.90;;;;;;5074724;28;20237;-71
2023/01/19 08:13:43;;;;;;;6.93;5.68;;;5.60;62.60;;;;;;5074686;28;20665;-71
2023/01/19 08:16:11;;;;;;;9.27;6.10;;;5.60;62.90;;;;;;5075464;28;20563;-71
2023/01/19 08:18:38;;;;;;;9.23;5.78;;;5.70;62.90;;;;;;5074684;28;20227;-70
2023/01/19 08:21:05;;;;;;;9.05;7.20;;;5.80;62.60;;;;;;5074674;28;20239;-71
2023/01/19 08:23:32;;;;;;;9.35;6.35;;;5.80;62.40;;;;;;5074153;28;20225;-71
2023/01/19 08:25:59;;;;;;;6.85;6.15;;;5.70;62.50;;;;;;5075229;28;20575;-71
2023/01/19 08:28:26;;;;;;;8.70;7.30;;;5.80;63.30;;;;;;5074716;28;20232;-70
2023/01/19 08:30:54;;;;;;;6.95;6.20;;;5.70;62.30;;;;;;5079977;28;20205;-71
2023/01/19 08:33:24;;;;;;;6.78;6.00;;;5.70;62.70;;;;;;5115190;28;20235;-70
2023/01/19 08:35:53;;;;;;;8.90;5.78;;;5.50;62.60;;;;;;5103860;28;20250;-70
2023/01/19 08:38:20;;;;;;;8.02;5.85;;;5.50;63.10;;;;;;5095302;28;20534;-70
2023/01/19 08:40:46;;;;;;;9.23;6.13;;;5.50;63.00;;;;;;5095210;28;20675;-71
2023/01/19 08:43:16;;;;;;;8.18;5.93;;;5.40;62.90;;;;;;5095364;28;20212;-70
2023/01/19 08:45:46;;;;;;;8.07;6.50;;;5.50;63.30;;;;;;5093863;28;20211;-70
2023/01/19 08:48:13;;;;;;;8.52;6.38;;;5.50;63.10;;;;;;5095146;28;20224;-70
2023/01/19 08:50:42;;;;;;;8.75;5.97;;;5.60;63.20;;;;;;5093894;28;20200;-72
2023/01/19 08:53:10;;;;;;;6.38;5.50;;;5.60;63.00;;;;;;5094815;28;20648;-71
2023/01/19 08:55:38;;;;;;;8.40;5.85;;;5.70;62.70;;;;;;5094527;28;20295;-71
2023/01/19 08:58:07;;;;;;;7.00;5.53;;;5.80;62.80;;;;;;5094687;28;20243;-71
2023/01/19 09:00:36;;;;;;;8.45;6.85;;;5.90;62.60;;;;;;5093958;28;20675;-70
2023/01/19 09:03:05;;;;;;;8.43;6.20;;;5.90;62.30;;;;;;5095116;28;20200;-70
2023/01/19 09:05:34;;;;;;;8.65;6.30;;;5.90;62.50;;;;;;5093919;28;20351;-72
2023/01/19 09:08:03;;;;;;;7.85;6.43;;;5.80;62.50;;;;;;5094642;28;20205;-71
2023/01/19 09:10:34;;;;;;;8.77;6.53;;;6.00;62.70;;;;;;5058849;28;20204;-72
2023/01/19 09:13:03;;;;;;;8.10;5.88;;;6.10;62.40;;;;;;5093400;28;20188;-72
2023/01/19 09:15:29;;;;;;;8.32;5.68;;;6.20;62.00;;;;;;5073885;28;20320;-70
2023/01/19 09:17:56;;;;;;;8.15;5.50;;;6.30;61.70;;;;;;5074413;28;20245;-70
2023/01/19 09:20:23;;;;;;;7.05;5.88;;;6.30;62.20;;;;;;5073796;28;20228;-72
2023/01/19 09:22:50;;;;;;;7.28;5.72;;;6.30;61.70;;;;;;5074099;28;20295;-70
2023/01/19 09:25:18;;;;;;;8.35;5.57;;;6.30;61.90;;;;;;5074670;28;20636;-72
2023/01/19 09:27:45;;;;;;;7.13;5.85;;;6.40;61.80;;;;;;5074028;28;20674;-71
2023/01/19 09:30:13;;;;;;;6.22;5.32;;;6.30;61.60;;;;;;5088227;28;20209;-71
2023/01/19 09:32:41;;;;;;;10.73;6.40;;;6.40;62.10;;;;;;5129096;28;20260;-70
2023/01/19 09:35:09;;;;;;;7.50;5.40;;;6.30;62.00;;;;;;5111077;28;20213;-70
2023/01/19 09:37:36;;;;;;;9.23;5.47;;;6.30;62.30;;;;;;5100589;28;20230;-70
2023/01/19 09:40:03;;;;;;;7.60;5.82;;;6.30;62.60;;;;;;5111933;28;20204;-70
2023/01/19 09:42:39;;;;;;;6.28;5.68;;;6.30;62.20;;;;;;5112426;28;20232;-72
2023/01/19 09:45:13;;;;;;;7.18;5.60;;;6.40;62.90;;;;;;5094888;28;20500;-72
2023/01/19 09:47:40;;;;;;;7.72;5.75;;;6.40;62.10;;;;;;5093072;28;20193;-70
2023/01/19 09:50:16;;;;;;;8.18;5.90;;;6.50;61.70;;;;;;5093642;28;20207;-72
2023/01/19 09:52:52;;;;;;;7.53;5.38;;;6.40;61.60;;;;;;5093327;28;20185;-70
2023/01/19 09:55:22;;;;;;;7.38;6.00;;;6.50;61.70;;;;;;5093491;28;20240;-71
2023/01/19 09:57:51;;;;;;;6.13;5.53;;;6.40;61.40;;;;;;5092428;28;20192;-72
2023/01/19 10:00:19;;;;;;;6.50;5.53;;;6.40;62.10;;;;;;5093794;28;20235;-71
2023/01/19 10:02:52;;;;;;;7.18;5.78;;;6.50;61.70;;;;;;5092658;28;20299;-71
2023/01/19 10:05:27;;;;;;;8.90;6.82;;;6.50;62.20;;;;;;5093758;28;20228;-71
2023/01/19 10:08:08;;;;;;;8.05;6.10;;;6.30;61.20;;;;;;5093511;28;20192;-70
2023/01/19 10:10:36;;;;;;;7.72;6.40;;;6.10;61.30;;;;;;5092820;28;20713;-70
2023/01/19 10:13:25;;;;;;;6.80;5.35;;;6.00;62.40;;;;;;5093225;28;20216;-70
2023/01/19 10:15:59;;;;;;;7.88;5.60;;;6.00;62.50;;;;;;5093410;28;20196;-71
2023/01/19 10:18:33;;;;;;;5.95;4.88;;;6.00;62.10;;;;;;5092330;28;20203;-70
2023/01/19 10:21:04;;;;;;;8.43;6.57;;;6.10;62.40;;;;;;5093340;28;20232;-70
2023/01/19 10:23:42;;;;;;;9.75;6.60;;;6.20;62.00;;;;;;5092607;28;20228;-71
2023/01/19 10:26:13;;;;;;;9.10;6.25;;;6.10;62.10;;;;;;5093216;28;20280;-70
2023/01/19 10:28:42;;;;;;;7.10;6.00;;;6.10;62.40;;;;;;5092371;28;20191;-71
2023/01/19 10:31:09;;;;;;;9.63;6.22;;;6.10;62.70;;;;;;5097583;28;20233;-71
2023/01/19 10:33:38;;;;;;;8.05;6.18;;;6.00;62.80;;;;;;5112415;28;20200;-71
2023/01/19 10:36:06;;;;;;;7.43;6.25;;;6.10;63.00;;;;;;5099937;28;20205;-71
2023/01/19 10:38:34;;;;;;;7.32;5.82;;;5.90;63.10;;;;;;5092501;28;20200;-71
2023/01/19 10:41:07;;;;;;;8.25;5.47;;;5.80;63.60;;;;;;5092840;28;20293;-71
2023/01/19 10:43:40;;;;;;;8.20;6.25;;;6.00;64.10;;;;;;5092351;28;20279;-71
2023/01/19 10:46:20;;;;;;;7.82;5.90;;;6.10;63.80;;;;;;5092853;28;20236;-71
2023/01/19 10:48:50;;;;;;;9.20;6.40;;;5.90;64.90;;;;;;5091900;28;20204;-71
2023/01/19 10:51:17;;;;;;;8.73;6.80;;;5.80;64.80;;;;;;5092576;28;20212;-71
2023/01/19 10:53:55;;;;;;;6.50;5.65;;;5.80;65.20;;;;;;5092279;28;20211;-71
2023/01/19 10:56:24;;;;;;;8.15;6.63;;;5.80;65.20;;;;;;5092634;28;20195;-71
2023/01/19 10:58:51;;;;;;;9.63;6.40;;;5.80;65.60;;;;;;5084094;28;20299;-70
2023/01/19 11:01:21;;;;;;;7.72;6.22;;;5.80;65.50;;;;;;5054354;28;20296;-71
2023/01/19 11:03:49;;;;;;;8.00;6.35;;;5.90;65.70;;;;;;5072262;28;20300;-70
2023/01/19 11:06:25;;;;;;;7.25;6.43;;;6.00;65.20;;;;;;5072497;28;20308;-71
2023/01/19 11:08:54;;;;;;;8.80;6.10;;;6.00;65.30;;;;;;5071708;28;20189;-72
2023/01/19 11:11:23;;;;;;;7.47;6.53;;;6.20;65.40;;;;;;5072422;28;20558;-71
2023/01/19 11:14:06;;;;;;;6.80;5.88;;;6.30;64.70;;;;;;5071386;28;20209;-71
2023/01/19 11:16:36;;;;;;;8.05;5.82;;;6.30;64.70;;;;;;5071401;28;20189;-71
2023/01/19 11:19:04;;;;;;;9.52;6.25;;;6.30;64.00;;;;;;5072161;28;20185;-70
2023/01/19 11:21:32;;;;;;;7.82;5.88;;;6.40;64.50;;;;;;5071559;28;20205;-72
2023/01/19 11:24:04;;;;;;;8.95;6.30;;;6.40;63.70;;;;;;5071819;28;20268;-70
2023/01/19 11:26:33;;;;;;;10.18;6.47;;;6.40;64.00;;;;;;5071505;28;20193;-70
2023/01/19 11:29:02;;;;;;;7.65;5.85;;;6.50;63.60;;;;;;5072134;28;20204;-71
2023/01/19 11:31:35;;;;;;;9.98;6.57;;;6.50;63.50;;;;;;5086580;28;20206;-73
2023/01/19 11:34:04;;;;;;;8.07;6.13;;;6.50;63.80;;;;;;5112693;28;20208;-71
2023/01/19 11:36:32;;;;;;;7.32;6.25;;;6.60;63.40;;;;;;5094866;28;20208;-70
2023/01/19 11:39:13;;;;;;;7.05;6.03;;;6.70;63.10;;;;;;5092010;28;20212;-71
2023/01/19 11:41:41;;;;;;;7.07;6.03;;;6.70;63.20;;;;;;5091778;28;20279;-71
2023/01/19 11:44:16;;;;;;;10.15;6.43;;;6.80;62.70;;;;;;5092084;28;20208;-71
2023/01/19 11:46:50;;;;;;;7.47;5.95;;;6.90;63.10;;;;;;5091594;28;20299;-70
2023/01/19 11:49:26;;;;;;;6.97;5.73;;;7.00;62.60;;;;;;5091885;28;20654;-71
2023/01/19 11:52:02;;;;;;;6.85;5.90;;;7.00;62.30;;;;;;5091600;28;20433;-71
2023/01/19 11:54:33;;;;;;;8.48;6.28;;;7.00;63.30;;;;;;5090623;28;20230;-71
2023/01/19 11:57:01;;;;;;;8.25;5.80;;;6.90;62.20;;;;;;5081586;28;20698;-71
2023/01/19 11:59:28;;;;;;;8.23;5.78;;;6.90;62.30;;;;;;5071316;28;20715;-71
2023/01/19 12:02:00;;;;;;;8.55;5.57;;;6.90;62.40;;;;;;5071663;28;20209;-70
2023/01/19 12:04:30;;;;;;;8.65;6.63;;;7.00;62.50;;;;;;5071681;28;20565;-71
2023/01/19 12:07:03;;;;;;;7.07;5.43;;;7.10;62.20;;;;;;5084395;28;20605;-71
2023/01/19 12:09:36;;;;;;;7.87;6.23;;;7.10;62.30;;;;;;5091996;28;20521;-71
2023/01/19 12:12:05;;;;;;;8.82;6.82;;;7.00;61.40;;;;;;5091976;28;20439;-71
2023/01/19 12:14:38;;;;;;;10.48;7.32;;;6.90;61.90;;;;;;5091100;28;20225;-71
2023/01/19 12:17:12;;;;;;;7.60;5.90;;;6.70;62.20;;;;;;5091741;28;20269;-72
2023/01/19 12:19:45;;;;;;;9.23;6.95;;;6.70;62.70;;;;;;5091598;28;20259;-72
2023/01/19 12:22:15;;;;;;;10.38;6.75;;;6.60;63.20;;;;;;5094448;28;20184;-71
2023/01/19 12:24:48;;;;;;;7.47;6.03;;;6.60;63.40;;;;;;5094735;28;20244;-71
2023/01/19 12:27:22;;;;;;;7.88;6.75;;;6.70;63.30;;;;;;5095161;28;20203;-71
2023/01/19 12:29:49;;;;;;;9.57;7.80;;;6.80;63.20;;;;;;5095186;28;20276;-70
2023/01/19 12:32:19;;;;;;;8.83;6.37;;;6.80;62.90;;;;;;5109678;28;20452;-71
2023/01/19 12:34:47;;;;;;;7.50;6.45;;;6.80;63.10;;;;;;5113096;28;20473;-70
2023/01/19 12:37:40;;;;;;;10.95;8.45;;;6.70;63.00;;;;;;5095612;28;20295;-71
2023/01/19 12:40:26;;;;;;;9.02;7.15;;;6.70;63.20;;;;;;5095410;28;20228;-72
2023/01/19 12:42:58;;;;;;;7.47;6.45;;;6.70;62.90;;;;;;5094229;28;20193;-71
2023/01/19 12:45:31;;;;;;;10.15;8.05;;;6.60;63.30;;;;;;5095963;28;20195;-71
2023/01/19 12:48:00;;;;;;;8.77;6.40;;;6.60;63.40;;;;;;5096179;28;20203;-72
2023/01/19 12:50:29;;;;;;;7.55;6.75;;;6.60;63.00;;;;;;5095033;28;20240;-71
2023/01/19 12:52:58;;;;;;;8.47;6.53;;;6.50;63.20;;;;;;5094295;28;20611;-72
2023/01/19 12:55:29;;;;;;;11.77;7.00;;;6.60;63.30;;;;;;5090973;28;20482;-71
2023/01/19 12:58:03;;;;;;;9.40;6.93;;;6.50;63.40;;;;;;5073675;28;20553;-72
2023/01/19 13:00:35;;;;;;;12.32;8.70;;;6.40;63.60;;;;;;5074795;28;20611;-70
2023/01/19 13:03:26;;;;;;;10.43;8.05;;;6.40;63.90;;;;;;5074850;28;20611;-71
2023/01/19 13:05:54;;;;;;;11.30;8.63;;;6.50;63.90;;;;;;5080169;28;20270;-71
2023/01/19 13:08:24;;;;;;;10.55;7.03;;;6.50;64.00;;;;;;5094534;28;20710;-72
2023/01/19 13:11:12;;;;;;;9.18;6.93;;;6.50;63.90;;;;;;5094147;28;20372;-71